Terminal Aerodrome Forecast
Issued by NWS

Home | Current Version | Previous Version | Text Only | Print | Product List | Glossary On
Versions: 1 2 3 4 5 6 7 8 9 10 11 12 13
000
FTUS44 KEPZ 312300 RRA
TAFDMN
TAF
KDMN 312341Z 0100/0124 19007KT P6SM VCTS SCT060CB BKN100
      TEMPO 0101/0103 5SM -TSRA BKN050CB OVC070
     FM010600 15008KT P6SM VCSH SCT040 BKN080
     FM011200 VRB04KT P6SM SCT030 BKN100 OVC220
     FM011800 11007KT P6SM SCT040 BKN120 OVC220=

USA.gov is the U.S. government's official web portal to all federal, state and local government web resources and services.